Time;durP1;ratioP1;P1;durP2;ratioP2;P2;SDS_P1;SDS_P2;PMS_P1;PMS_P2;Temp;Humidity;BMP_temperature;BMP_pressure;BME280_temperature;BME280_humidity;BME280_pressure;Samples;Min_cycle;Max_cycle;Signal;HPM_P1;HPM_P2
2023/07/27 00:00:31;;;;;;;5.45;2.42;;;;;;;19.53;53.41;100939.31;5142024;27;20051;-62
2023/07/27 00:02:59;;;;;;;5.97;2.65;;;;;;;19.53;53.92;100948.31;5142204;27;20123;-62
2023/07/27 00:05:27;;;;;;;4.53;2.72;;;;;;;19.52;53.75;100940.41;5144131;27;20043;-63
2023/07/27 00:07:55;;;;;;;6.97;2.83;;;;;;;19.52;53.72;100934.97;5143296;27;20073;-62
2023/07/27 00:10:24;;;;;;;3.53;2.63;;;;;;;19.49;54.06;100933.59;5141772;27;20062;-63
2023/07/27 00:12:54;;;;;;;4.13;2.75;;;;;;;19.50;53.91;100930.59;5142461;27;20043;-64
2023/07/27 00:15:21;;;;;;;4.93;2.45;;;;;;;19.49;54.16;100928.13;5141819;27;20057;-64
2023/07/27 00:17:49;;;;;;;4.50;2.47;;;;;;;19.49;53.92;100928.94;5144767;27;20066;-63
2023/07/27 00:20:17;;;;;;;5.78;3.08;;;;;;;19.47;54.11;100925.69;5143428;27;20077;-64
2023/07/27 00:22:45;;;;;;;3.55;2.30;;;;;;;19.47;54.20;100928.41;5138674;27;20568;-64
2023/07/27 00:25:13;;;;;;;5.45;2.70;;;;;;;19.47;54.12;100911.25;5141312;27;20092;-63
2023/07/27 00:27:40;;;;;;;4.63;2.58;;;;;;;19.46;54.31;100913.16;5141728;27;20092;-62
2023/07/27 00:30:10;;;;;;;5.40;2.53;;;;;;;19.44;54.28;100920.78;5141327;27;20047;-63
2023/07/27 00:32:38;;;;;;;7.22;2.35;;;;;;;19.44;54.20;100917.25;5138737;27;20051;-63
2023/07/27 00:35:07;;;;;;;5.90;2.83;;;;;;;19.42;54.27;100909.34;5140692;27;20047;-63
2023/07/27 00:37:35;;;;;;;4.00;2.33;;;;;;;19.40;54.19;100903.38;5142619;27;20039;-63
2023/07/27 00:40:03;;;;;;;4.40;2.13;;;;;;;19.40;54.35;100903.38;5140628;27;20043;-63
2023/07/27 00:42:30;;;;;;;4.53;2.60;;;;;;;19.39;54.43;100900.91;5142237;27;20069;-63
2023/07/27 00:44:58;;;;;;;4.15;2.70;;;;;;;19.38;54.51;100899.28;5140879;27;20039;-63
2023/07/27 00:47:27;;;;;;;4.15;2.20;;;;;;;19.38;54.65;100886.47;5142596;27;20055;-63
2023/07/27 00:49:55;;;;;;;4.20;2.38;;;;;;;19.37;55.06;100881.31;5141739;27;20056;-63
2023/07/27 00:52:23;;;;;;;4.07;2.25;;;;;;;19.36;54.75;100883.22;5142064;27;20111;-63
2023/07/27 00:54:51;;;;;;;3.78;2.33;;;;;;;19.35;54.87;100878.84;5144028;27;20047;-64
2023/07/27 00:57:20;;;;;;;5.10;2.58;;;;;;;19.35;54.94;100878.03;5144442;27;20047;-64
2023/07/27 00:59:48;;;;;;;3.80;2.20;;;;;;;19.35;55.11;100870.69;5141566;27;20043;-64
2023/07/27 01:02:17;;;;;;;3.42;2.35;;;;;;;19.33;55.17;100870.16;5139952;27;20467;-64
2023/07/27 01:04:46;;;;;;;4.45;2.30;;;;;;;19.33;55.59;100870.16;5140985;27;20059;-63
2023/07/27 01:07:14;;;;;;;5.72;3.10;;;;;;;19.32;55.73;100863.06;5138367;27;20047;-64
2023/07/27 01:09:42;;;;;;;4.18;2.42;;;;;;;19.31;55.73;100858.72;5138919;27;20047;-63
2023/07/27 01:12:18;;;;;;;4.43;2.45;;;;;;;19.31;55.99;100853.25;5136726;27;20465;-64
2023/07/27 01:14:57;;;;;;;5.10;2.65;;;;;;;19.31;55.80;100852.44;5144538;27;20142;-64
2023/07/27 01:17:32;;;;;;;3.33;2.22;;;;;;;19.29;55.89;100851.91;5140503;27;20096;-64
2023/07/27 01:20:18;;;;;;;4.82;2.50;;;;;;;19.30;56.22;100848.09;5140449;27;20054;-64
2023/07/27 01:23:16;;;;;;;5.28;2.33;;;;;;;19.27;56.23;100852.19;5141002;27;20047;-63
2023/07/27 01:26:08;;;;;;;3.67;2.65;;;;;;;19.27;56.21;100851.38;5146676;27;20502;-64
2023/07/27 01:28:55;;;;;;;4.05;2.40;;;;;;;19.25;56.61;100842.66;5144532;27;20054;-64
2023/07/27 01:31:26;;;;;;;3.95;2.40;;;;;;;19.24;56.44;100839.13;5138977;27;20043;-64
2023/07/27 01:33:59;;;;;;;4.13;2.50;;;;;;;19.22;56.67;100835.88;5141812;27;20388;-64
2023/07/27 01:36:31;;;;;;;4.18;2.47;;;;;;;19.21;56.59;100828.78;5141212;27;20084;-64
2023/07/27 01:39:02;;;;;;;3.00;2.10;;;;;;;19.18;56.62;100823.88;5140323;27;20043;-63
2023/07/27 01:41:32;;;;;;;4.53;2.45;;;;;;;19.19;56.86;100820.88;5139872;27;20058;-63
2023/07/27 01:44:01;;;;;;;5.65;2.88;;;;;;;19.18;56.95;100816.53;5143608;27;20043;-63
2023/07/27 01:46:32;;;;;;;3.22;2.45;;;;;;;19.17;56.62;100812.19;5138551;27;20051;-63
2023/07/27 01:49:00;;;;;;;6.45;2.47;;;;;;;19.16;56.82;100805.09;5139042;27;20052;-63
2023/07/27 01:51:30;;;;;;;4.60;2.35;;;;;;;19.15;56.86;100810.81;5137797;27;20047;-63
2023/07/27 01:53:58;;;;;;;3.90;2.40;;;;;;;19.14;56.74;100803.75;5137074;27;20047;-62
2023/07/27 01:56:28;;;;;;;3.28;2.22;;;;;;;19.14;56.88;100801.03;5135490;28;20058;-63
2023/07/27 01:58:56;;;;;;;5.57;2.70;;;;;;;19.12;56.91;100795.84;5139780;28;20039;-63
2023/07/27 02:01:24;;;;;;;5.40;2.78;;;;;;;19.11;57.22;100791.50;5138392;27;20095;-63
2023/07/27 02:03:54;;;;;;;6.05;3.13;;;;;;;19.11;57.00;100787.97;5143343;28;20043;-63
2023/07/27 02:06:22;;;;;;;6.32;2.90;;;;;;;19.09;56.95;100790.97;5135267;27;20051;-63
2023/07/27 02:08:50;;;;;;;3.05;2.40;;;;;;;19.09;56.96;100782.78;5144082;27;20135;-63
2023/07/27 02:11:20;;;;;;;5.03;3.15;;;;;;;19.08;57.19;100769.44;5142783;28;20051;-63
2023/07/27 02:13:55;;;;;;;4.78;2.70;;;;;;;19.07;57.21;100759.66;5143760;27;20184;-63
2023/07/27 02:16:32;;;;;;;6.90;2.78;;;;;;;19.06;57.35;100763.50;5146247;27;20420;-63
2023/07/27 02:19:04;;;;;;;5.65;2.90;;;;;;;19.06;57.37;100760.78;5141849;27;20043;-64
2023/07/27 02:21:33;;;;;;;3.50;2.28;;;;;;;19.04;56.86;100755.59;5147300;27;20134;-65
2023/07/27 02:24:02;;;;;;;5.75;2.50;;;;;;;19.05;57.12;100746.34;5143532;27;20072;-64
2023/07/27 02:26:30;;;;;;;5.88;2.80;;;;;;;19.03;57.25;100742.28;5146497;27;20047;-65
2023/07/27 02:28:58;;;;;;;5.88;2.97;;;;;;;19.03;57.14;100734.09;5149820;27;20046;-65
2023/07/27 02:31:26;;;;;;;5.32;2.65;;;;;;;19.02;57.32;100733.28;5140444;27;20043;-65
2023/07/27 02:33:54;;;;;;;5.45;2.55;;;;;;;19.02;57.23;100713.41;5146515;27;20062;-64
2023/07/27 02:36:23;;;;;;;7.40;3.13;;;;;;;19.01;57.44;100711.78;5140601;27;20055;-64
2023/07/27 02:38:51;;;;;;;5.40;2.85;;;;;;;18.99;57.30;100709.34;5145955;27;20472;-63
2023/07/27 02:41:19;;;;;;;5.55;2.85;;;;;;;19.00;57.88;100721.03;5146934;27;20058;-64
2023/07/27 02:43:46;;;;;;;4.72;2.63;;;;;;;18.98;57.95;100707.69;5145236;27;20051;-64
2023/07/27 02:46:14;;;;;;;4.93;2.40;;;;;;;18.97;57.85;100703.34;5142335;27;20130;-65
2023/07/27 02:48:42;;;;;;;4.35;2.70;;;;;;;18.97;57.63;100699.81;5143793;27;20043;-64
2023/07/27 02:51:10;;;;;;;5.53;2.30;;;;;;;18.96;57.67;100699.00;5147321;27;20111;-64
2023/07/27 02:53:39;;;;;;;5.25;2.60;;;;;;;18.95;57.71;100691.91;5143622;27;20047;-64
2023/07/27 02:56:08;;;;;;;4.00;2.30;;;;;;;18.94;57.75;100698.47;5147896;27;20050;-64
2023/07/27 02:58:35;;;;;;;4.72;2.92;;;;;;;18.93;57.81;100690.56;5143511;27;20051;-64
2023/07/27 03:01:04;;;;;;;5.53;2.67;;;;;;;18.92;57.49;100684.31;5147152;27;20039;-64
2023/07/27 03:03:32;;;;;;;4.55;3.00;;;;;;;18.91;57.71;100681.88;5145827;27;20119;-65
2023/07/27 03:06:01;;;;;;;7.18;2.75;;;;;;;18.90;57.72;100669.34;5145150;27;20416;-65
2023/07/27 03:08:30;;;;;;;4.70;2.88;;;;;;;18.89;57.75;100665.81;5146399;27;20035;-65
2023/07/27 03:11:03;;;;;;;5.38;3.20;;;;;;;18.89;57.53;100663.09;5146602;27;20043;-65
2023/07/27 03:13:32;;;;;;;3.20;2.20;;;;;;;18.88;57.54;100663.38;5140321;27;20047;-65
2023/07/27 03:16:03;;;;;;;5.15;2.72;;;;;;;18.84;57.86;100654.94;5145280;27;20047;-65
2023/07/27 03:18:32;;;;;;;5.93;2.90;;;;;;;18.78;57.96;100643.28;5145656;27;20042;-66
2023/07/27 03:21:03;;;;;;;5.00;2.83;;;;;;;18.85;58.09;100653.84;5145851;27;20039;-64
2023/07/27 03:23:30;;;;;;;5.47;2.88;;;;;;;18.86;57.84;100641.88;5144044;27;20051;-64
2023/07/27 03:25:58;;;;;;;5.03;2.80;;;;;;;18.83;57.77;100645.97;5144575;27;20043;-64
2023/07/27 03:28:27;;;;;;;6.40;2.53;;;;;;;18.83;57.98;100640.53;5139902;27;20305;-65
2023/07/27 03:30:55;;;;;;;4.80;2.88;;;;;;;18.83;58.31;100634.25;5140343;27;20132;-65
2023/07/27 03:33:23;;;;;;;3.85;2.80;;;;;;;18.80;58.16;100622.03;5142866;27;20047;-65
2023/07/27 03:35:51;;;;;;;5.35;2.97;;;;;;;18.76;58.18;100611.97;5142842;27;20115;-65
2023/07/27 03:38:18;;;;;;;5.13;2.60;;;;;;;18.79;58.50;100619.59;5142279;27;20039;-65
2023/07/27 03:40:46;;;;;;;4.28;2.70;;;;;;;18.78;58.20;100613.31;5142010;27;20092;-64
2023/07/27 03:43:14;;;;;;;4.40;2.30;;;;;;;18.77;58.20;100608.16;5131219;27;20116;-65
2023/07/27 03:45:43;;;;;;;5.07;2.78;;;;;;;18.77;58.30;100598.09;5145616;27;20054;-65
2023/07/27 03:48:11;;;;;;;5.32;3.35;;;;;;;18.79;57.96;100590.44;5141657;27;20077;-66
2023/07/27 03:50:38;;;;;;;6.35;2.80;;;;;;;18.78;58.44;100591.53;5142801;27;20047;-65
2023/07/27 03:53:06;;;;;;;7.97;2.78;;;;;;;18.77;58.52;100580.94;5143607;27;20039;-65
2023/07/27 03:55:34;;;;;;;5.18;2.95;;;;;;;18.74;58.38;100557.81;5138557;27;20055;-65
2023/07/27 03:58:02;;;;;;;3.70;2.83;;;;;;;18.73;58.44;100569.78;5145215;27;20076;-66
2023/07/27 04:00:30;;;;;;;3.88;2.67;;;;;;;18.71;58.45;100563.00;5141191;27;20055;-65
2023/07/27 04:02:59;;;;;;;8.48;3.15;;;;;;;18.65;58.61;100551.34;5141865;27;20061;-66
2023/07/27 04:05:27;;;;;;;4.43;2.70;;;;;;;18.72;58.56;100559.19;5141304;27;20050;-65
2023/07/27 04:07:55;;;;;;;4.63;2.58;;;;;;;18.69;58.36;100555.13;5140142;27;20120;-65
2023/07/27 04:10:24;;;;;;;4.50;2.40;;;;;;;18.62;58.62;100549.19;5143184;27;20075;-65
2023/07/27 04:12:52;;;;;;;3.58;2.30;;;;;;;18.66;58.79;100558.41;5145615;27;20047;-65
2023/07/27 04:15:20;;;;;;;3.58;2.53;;;;;;;18.67;58.74;100560.03;5142199;27;20069;-66
2023/07/27 04:17:48;;;;;;;3.40;2.30;;;;;;;18.68;58.76;100556.22;5144723;27;20047;-64
2023/07/27 04:20:17;;;;;;;3.80;2.40;;;;;;;18.67;58.90;100560.03;5139774;27;20126;-65
2023/07/27 04:22:45;;;;;;;3.72;2.33;;;;;;;18.67;58.74;100553.78;5143020;27;20047;-65
2023/07/27 04:25:13;;;;;;;4.65;2.25;;;;;;;18.66;58.87;100549.44;5141814;27;20096;-66
2023/07/27 04:27:40;;;;;;;4.10;2.28;;;;;;;18.66;58.58;100555.69;5143649;27;20347;-64
2023/07/27 04:30:09;;;;;;;3.78;2.20;;;;;;;18.67;58.62;100542.88;5141214;27;20044;-65
2023/07/27 04:32:36;;;;;;;3.95;2.42;;;;;;;18.65;59.25;100531.47;5137324;27;20058;-66
2023/07/27 04:35:06;;;;;;;4.40;2.25;;;;;;;18.64;58.88;100536.09;5137046;27;20053;-65
2023/07/27 04:37:35;;;;;;;3.17;1.92;;;;;;;18.77;59.11;100532.75;5140709;27;20066;-65
2023/07/27 04:40:06;;;;;;;2.97;2.05;;;;;;;18.72;58.98;100526.53;5141570;27;20511;-66
2023/07/27 04:42:34;;;;;;;3.30;1.90;;;;;;;18.69;58.89;100521.66;5138989;27;20467;-66
2023/07/27 04:45:02;;;;;;;3.70;2.25;;;;;;;18.68;58.81;100520.84;5139401;27;20047;-66
2023/07/27 04:47:30;;;;;;;2.42;1.77;;;;;;;18.66;58.79;100514.84;5139842;27;20320;-65
2023/07/27 04:49:58;;;;;;;2.65;1.92;;;;;;;18.66;59.08;100511.31;5137984;27;20075;-66
2023/07/27 04:52:27;;;;;;;3.58;1.92;;;;;;;18.66;58.72;100511.31;5142437;27;20080;-64
2023/07/27 04:54:57;;;;;;;3.42;1.92;;;;;;;18.66;58.87;100505.88;5141537;27;20051;-65
2023/07/27 04:57:24;;;;;;;2.38;1.95;;;;;;;18.65;58.91;100509.69;5139689;27;20107;-64
2023/07/27 04:59:52;;;;;;;2.97;2.28;;;;;;;18.64;59.15;100498.00;5141361;27;20092;-65
2023/07/27 05:02:20;;;;;;;2.95;1.90;;;;;;;18.65;58.96;100498.81;5139862;27;20038;-64
2023/07/27 05:04:50;;;;;;;4.18;1.75;;;;;;;18.65;59.06;100496.09;5140249;27;20050;-64
2023/07/27 05:07:19;;;;;;;3.10;1.88;;;;;;;18.65;59.23;100502.34;5141365;27;20043;-64
2023/07/27 05:09:46;;;;;;;3.88;1.88;;;;;;;18.65;59.25;100487.91;5134385;27;20484;-64
2023/07/27 05:12:16;;;;;;;3.10;1.85;;;;;;;18.62;59.25;100494.75;5137386;27;20361;-63
2023/07/27 05:14:43;;;;;;;4.43;1.95;;;;;;;18.63;59.26;100495.56;5143704;27;20043;-67
2023/07/27 05:17:11;;;;;;;2.35;1.73;;;;;;;18.61;59.25;100484.94;5140681;27;20054;-68
2023/07/27 05:19:39;;;;;;;2.30;1.63;;;;;;;18.61;59.24;100471.34;5141133;27;20055;-65
2023/07/27 05:22:07;;;;;;;3.92;2.13;;;;;;;18.59;59.41;100473.50;5141184;27;20043;-65
2023/07/27 05:24:34;;;;;;;3.55;1.73;;;;;;;18.58;59.58;100466.44;5142003;27;20058;-64
2023/07/27 05:27:02;;;;;;;3.03;1.83;;;;;;;18.59;59.67;100459.91;5139784;27;20043;-63
2023/07/27 05:29:32;;;;;;;2.67;1.70;;;;;;;18.82;59.40;100461.91;4786257;27;10000333;-66
2023/07/27 05:31:59;;;;;;;8.30;1.48;;;;;;;18.73;59.66;100468.25;5141255;27;20047;-66
2023/07/27 05:34:27;;;;;;;3.55;1.80;;;;;;;18.94;59.56;100456.09;5142105;27;20108;-67
2023/07/27 05:36:55;;;;;;;3.08;1.98;;;;;;;18.78;59.49;100457.31;5141155;27;20099;-64
2023/07/27 05:39:23;;;;;;;4.65;2.05;;;;;;;18.68;59.83;100460.94;5142578;27;20085;-63
2023/07/27 05:41:50;;;;;;;3.20;1.63;;;;;;;18.63;60.11;100449.28;5142794;27;20035;-63
2023/07/27 05:44:18;;;;;;;4.25;1.63;;;;;;;18.60;60.33;100455.25;5140684;27;20061;-64
2023/07/27 05:46:47;;;;;;;2.17;1.38;;;;;;;18.60;60.01;100458.78;5133456;27;20055;-63
2023/07/27 05:49:15;;;;;;;2.00;1.50;;;;;;;18.58;60.18;100455.53;5135794;27;20483;-63
2023/07/27 05:51:43;;;;;;;1.58;1.10;;;;;;;18.56;60.07;100449.56;5133343;27;20036;-63
2023/07/27 05:54:11;;;;;;;2.85;1.70;;;;;;;18.57;60.24;100443.03;5139170;28;20054;-65
2023/07/27 05:56:40;;;;;;;3.63;1.50;;;;;;;18.58;60.29;100441.13;5134602;28;20047;-66
2023/07/27 05:59:08;;;;;;;1.40;1.20;;;;;;;18.58;60.37;100441.13;5141301;27;20054;-65
2023/07/27 06:01:36;;;;;;;3.97;1.50;;;;;;;18.57;60.38;100448.47;5143174;28;20047;-66
2023/07/27 06:04:06;;;;;;;2.13;1.63;;;;;;;18.60;60.90;100445.19;5139232;28;20065;-65
2023/07/27 06:06:35;;;;;;;3.00;1.60;;;;;;;18.58;60.66;100438.41;5136970;28;20050;-66
2023/07/27 06:09:04;;;;;;;1.50;1.30;;;;;;;18.56;60.88;100435.16;5143722;28;20071;-66
2023/07/27 06:11:32;;;;;;;3.08;1.45;;;;;;;18.56;60.53;100441.41;5142285;27;20039;-63
2023/07/27 06:14:00;;;;;;;3.80;1.60;;;;;;;18.55;60.40;100434.34;5137805;27;20047;-65
2023/07/27 06:16:28;;;;;;;2.05;1.30;;;;;;;18.55;61.01;100428.91;5136298;27;20060;-63
2023/07/27 06:18:55;;;;;;;2.78;1.20;;;;;;;18.56;60.77;100427.81;5131759;27;20151;-63
2023/07/27 06:21:25;;;;;;;2.00;1.30;;;;;;;18.54;60.79;100422.66;5135162;27;20100;-63
2023/07/27 06:23:52;;;;;;;1.45;1.20;;;;;;;18.53;60.59;100431.91;5134182;27;20040;-63
2023/07/27 06:26:20;;;;;;;2.08;1.30;;;;;;;18.46;60.85;100414.28;5138785;27;20039;-63
2023/07/27 06:28:48;;;;;;;2.65;1.40;;;;;;;18.56;60.57;100421.56;5138974;27;20580;-64
2023/07/27 06:31:16;;;;;;;1.52;1.20;;;;;;;18.56;60.75;100427.00;5133201;28;20043;-65
2023/07/27 06:33:44;;;;;;;2.15;1.30;;;;;;;18.56;60.97;100419.63;5138103;28;20499;-64
2023/07/27 06:36:15;;;;;;;3.03;1.40;;;;;;;18.63;61.45;100414.72;5136608;28;20043;-64
2023/07/27 06:38:44;;;;;;;1.77;1.30;;;;;;;18.61;60.77;100413.38;5137018;28;20047;-63
2023/07/27 06:41:15;;;;;;;1.85;1.05;;;;;;;18.59;60.87;100408.19;5137752;28;20060;-65
2023/07/27 06:43:43;;;;;;;1.05;0.95;;;;;;;18.60;60.97;100411.72;5138074;28;20112;-63
2023/07/27 06:46:11;;;;;;;1.40;1.10;;;;;;;18.60;61.12;100409.00;5134381;27;20043;-64
2023/07/27 06:48:41;;;;;;;1.80;1.20;;;;;;;18.60;60.97;100411.72;5132928;27;20077;-63
2023/07/27 06:51:09;;;;;;;1.67;1.10;;;;;;;18.59;60.93;100405.47;5136785;28;20068;-63
2023/07/27 06:53:37;;;;;;;1.67;1.20;;;;;;;18.59;61.18;100408.19;5134097;28;20051;-64
2023/07/27 06:56:06;;;;;;;1.30;1.10;;;;;;;18.59;61.43;100410.91;5138710;27;20096;-65
2023/07/27 06:58:34;;;;;;;1.10;1.00;;;;;;;18.58;60.94;100409.28;5136590;27;20043;-65
2023/07/27 07:01:02;;;;;;;1.48;0.98;;;;;;;18.59;61.30;100408.19;5139524;27;20499;-64
2023/07/27 07:03:30;;;;;;;1.30;1.08;;;;;;;18.60;61.13;100409.00;5141805;27;20049;-64
2023/07/27 07:05:57;;;;;;;2.28;1.33;;;;;;;18.59;61.13;100405.47;5137446;27;20043;-64
2023/07/27 07:08:26;;;;;;;1.40;1.13;;;;;;;18.59;61.05;100412.81;5138639;27;20047;-64
2023/07/27 07:10:53;;;;;;;1.50;1.17;;;;;;;18.59;61.44;100410.91;5135782;27;20035;-63
2023/07/27 07:13:23;;;;;;;1.95;1.20;;;;;;;18.57;61.63;100407.66;5143541;27;20051;-65
2023/07/27 07:15:51;;;;;;;1.40;1.20;;;;;;;18.59;61.96;100410.09;5137173;27;20039;-64
2023/07/27 07:18:18;;;;;;;1.65;1.08;;;;;;;18.59;61.78;100401.94;5143171;27;20068;-65
2023/07/27 07:20:46;;;;;;;1.73;1.00;;;;;;;18.59;61.72;100396.47;5148709;27;20103;-64
2023/07/27 07:23:18;;;;;;;2.15;1.17;;;;;;;18.58;61.78;100412.00;5144166;27;20039;-64
2023/07/27 07:25:46;;;;;;;1.35;0.93;;;;;;;18.58;61.81;100406.56;5139822;27;20051;-64
2023/07/27 07:28:13;;;;;;;1.23;0.95;;;;;;;18.59;61.80;100399.19;5142104;27;20047;-63
2023/07/27 07:30:43;;;;;;;2.38;1.10;;;;;;;18.62;62.13;100410.38;5142216;27;20047;-65
2023/07/27 07:33:12;;;;;;;1.63;1.13;;;;;;;18.60;62.13;100404.38;5138335;27;20062;-65
2023/07/27 07:35:40;;;;;;;1.50;1.00;;;;;;;18.59;62.53;100400.03;5142511;27;20048;-66
2023/07/27 07:38:07;;;;;;;0.77;0.77;;;;;;;18.59;63.08;100397.28;5137527;27;20047;-65
2023/07/27 07:40:35;;;;;;;2.00;0.98;;;;;;;18.59;63.75;100399.19;5139187;27;20039;-64
2023/07/27 07:43:03;;;;;;;2.67;0.95;;;;;;;18.58;63.70;100406.56;5139843;27;20055;-65
2023/07/27 07:45:34;;;;;;;3.25;0.90;;;;;;;18.57;63.54;100391.31;5148710;27;20072;-65
2023/07/27 07:48:03;;;;;;;3.38;1.00;;;;;;;18.58;63.52;100395.66;5140141;27;20486;-65
2023/07/27 07:50:33;;;;;;;1.65;0.93;;;;;;;18.58;63.76;100394.84;5141105;27;20176;-64
2023/07/27 07:53:00;;;;;;;1.58;1.05;;;;;;;18.57;63.49;100394.03;5138749;27;20035;-64
2023/07/27 07:55:28;;;;;;;2.05;0.90;;;;;;;18.65;62.86;100395.38;5141753;27;20460;-63
2023/07/27 07:57:56;;;;;;;2.20;1.35;;;;;;;18.62;63.69;100393.22;5137795;27;20062;-64
2023/07/27 08:00:24;;;;;;;1.67;1.25;;;;;;;18.59;64.10;100393.75;5140762;27;20051;-63
2023/07/27 08:02:51;;;;;;;1.85;1.20;;;;;;;18.58;64.63;100392.13;5138113;27;20350;-64
2023/07/27 08:05:21;;;;;;;1.95;1.20;;;;;;;18.58;65.00;100384.78;5136132;27;20039;-64
2023/07/27 08:07:49;;;;;;;1.55;1.02;;;;;;;18.57;65.81;100388.59;5141507;27;20408;-63
2023/07/27 08:10:17;;;;;;;4.05;1.45;;;;;;;18.58;66.02;100397.59;5141447;27;20340;-64
2023/07/27 08:12:45;;;;;;;2.88;1.45;;;;;;;18.58;66.11;100401.13;5144018;27;20379;-63
2023/07/27 08:15:13;;;;;;;1.98;1.35;;;;;;;18.56;66.50;100389.69;5142335;27;20073;-63
2023/07/27 08:17:41;;;;;;;1.48;0.90;;;;;;;18.58;66.14;100395.66;5142736;27;20053;-63
2023/07/27 08:20:10;;;;;;;1.95;1.33;;;;;;;18.59;65.95;100391.03;5139023;27;20054;-64
2023/07/27 08:22:39;;;;;;;1.10;1.00;;;;;;;18.58;65.95;100392.94;5136541;27;20053;-64
2023/07/27 08:25:07;;;;;;;1.88;1.25;;;;;;;18.58;66.37;100389.41;5139115;27;20047;-64
2023/07/27 08:27:48;;;;;;;1.10;1.02;;;;;;;18.58;67.12;100382.06;5141866;27;20048;-64
2023/07/27 08:30:16;;;;;;;2.17;1.40;;;;;;;18.63;66.39;100390.22;5138282;27;20047;-63
2023/07/27 08:32:47;;;;;;;2.10;1.40;;;;;;;18.63;66.28;100381.22;5141537;27;20043;-63
2023/07/27 08:35:15;;;;;;;1.88;1.20;;;;;;;18.62;66.64;100387.78;5133497;27;20445;-64
2023/07/27 08:37:44;;;;;;;2.15;1.40;;;;;;;18.63;66.50;100378.50;5139900;27;20107;-64
2023/07/27 08:40:13;;;;;;;1.77;0.95;;;;;;;18.62;66.76;100376.88;5131657;27;20043;-64
2023/07/27 08:42:43;;;;;;;1.95;1.20;;;;;;;18.61;67.86;100378.00;5141822;27;20043;-64
2023/07/27 08:45:13;;;;;;;1.88;1.20;;;;;;;18.59;68.80;100380.97;5138834;27;20129;-64
2023/07/27 08:47:42;;;;;;;1.98;1.10;;;;;;;18.58;68.75;100378.53;5142134;27;20050;-64
2023/07/27 08:50:10;;;;;;;1.65;1.30;;;;;;;18.57;69.55;100379.63;5136101;27;20043;-64
2023/07/27 08:52:38;;;;;;;1.52;1.13;;;;;;;18.57;69.87;100382.34;5140019;27;20051;-63
2023/07/27 08:55:08;;;;;;;1.60;1.00;;;;;;;18.57;68.93;100383.16;5138453;27;20051;-64
2023/07/27 08:57:36;;;;;;;1.73;1.17;;;;;;;18.59;68.06;100383.69;5135721;27;20044;-64
2023/07/27 09:00:05;;;;;;;2.28;1.35;;;;;;;18.61;68.53;100384.25;5132379;27;20133;-64
2023/07/27 09:02:32;;;;;;;1.60;1.13;;;;;;;18.62;68.83;100385.88;5140712;27;20065;-64
2023/07/27 09:05:00;;;;;;;2.60;1.27;;;;;;;18.66;67.35;100383.38;5138262;27;20047;-64
2023/07/27 09:07:28;;;;;;;1.52;1.00;;;;;;;18.64;68.34;100391.03;5135195;27;20063;-64
2023/07/27 09:09:56;;;;;;;4.07;1.10;;;;;;;18.63;68.28;100392.13;5137618;27;20357;-64
2023/07/27 09:12:26;;;;;;;0.77;0.77;;;;;;;18.63;68.71;100392.94;5138368;27;20043;-64
2023/07/27 09:14:54;;;;;;;2.15;1.10;;;;;;;18.68;68.35;100382.00;5131652;27;20058;-64
2023/07/27 09:17:23;;;;;;;0.93;0.80;;;;;;;18.68;68.39;100375.75;5137510;27;20073;-64
2023/07/27 09:19:51;;;;;;;1.02;0.80;;;;;;;18.66;67.93;100377.94;5138072;27;20067;-64
2023/07/27 09:22:19;;;;;;;1.15;0.77;;;;;;;18.65;67.37;100385.28;5136645;27;20055;-64
2023/07/27 09:24:47;;;;;;;4.22;1.30;;;;;;;18.66;68.73;100373.31;5135583;27;20044;-64
2023/07/27 09:27:15;;;;;;;1.25;1.05;;;;;;;18.67;69.43;100374.94;5137838;27;20137;-62
2023/07/27 09:29:44;;;;;;;1.42;0.82;;;;;;;18.73;67.89;100373.78;5141036;27;20074;-64
2023/07/27 09:32:12;;;;;;;1.05;0.90;;;;;;;18.74;68.49;100369.97;5136035;27;20047;-64
2023/07/27 09:34:40;;;;;;;1.58;0.88;;;;;;;18.75;68.54;100381.66;5132849;27;20506;-64
2023/07/27 09:37:09;;;;;;;1.98;1.00;;;;;;;18.75;68.15;100371.59;5140144;27;20058;-64
2023/07/27 09:39:42;;;;;;;1.13;0.82;;;;;;;18.71;68.87;100373.25;5139023;27;20056;-64
2023/07/27 09:42:13;;;;;;;2.33;1.00;;;;;;;18.71;69.87;100372.44;5138243;27;20107;-64
2023/07/27 09:44:48;;;;;;;3.45;0.88;;;;;;;18.72;68.96;100368.63;5140686;27;20146;-64
2023/07/27 09:47:19;;;;;;;1.48;0.90;;;;;;;18.77;68.21;100360.41;5138114;27;20047;-64
2023/07/27 09:49:49;;;;;;;1.27;1.08;;;;;;;18.82;68.51;100371.25;5133992;27;20110;-64
2023/07/27 09:52:19;;;;;;;0.93;0.77;;;;;;;18.80;68.67;100376.97;5137154;27;20052;-64
2023/07/27 09:54:48;;;;;;;1.15;0.65;;;;;;;18.81;68.57;100377.78;5133547;28;20049;-64
2023/07/27 09:57:16;;;;;;;0.60;0.60;;;;;;;18.78;68.56;100372.91;5138154;27;20050;-64
2023/07/27 09:59:45;;;;;;;2.03;0.63;;;;;;;18.76;69.10;100373.22;5140811;27;20047;-64
2023/07/27 10:02:14;;;;;;;0.68;0.60;;;;;;;18.74;69.42;100372.69;5136650;28;20048;-64
2023/07/27 10:04:49;;;;;;;0.95;0.73;;;;;;;18.79;69.76;100374.53;5131087;27;20062;-64
2023/07/27 10:07:19;;;;;;;2.10;0.88;;;;;;;18.74;70.08;100380.84;5139608;27;20046;-64
2023/07/27 10:09:47;;;;;;;0.63;0.63;;;;;;;18.79;70.02;100382.72;5138901;27;20039;-64
2023/07/27 10:12:28;;;;;;;2.95;0.68;;;;;;;18.85;69.49;100379.66;5142349;27;20100;-64
2023/07/27 10:15:21;;;;;;;1.55;0.70;;;;;;;18.83;69.50;100375.59;5139352;27;20039;-64
2023/07/27 10:17:52;;;;;;;1.75;0.65;;;;;;;18.76;70.81;100381.38;5136985;27;20268;-63
2023/07/27 10:20:21;;;;;;;2.05;1.05;;;;;;;18.75;70.52;100378.94;5138172;27;20051;-63
2023/07/27 10:22:52;;;;;;;1.48;0.47;;;;;;;18.75;70.26;100376.22;5140419;27;20047;-66
2023/07/27 10:25:20;;;;;;;2.65;0.90;;;;;;;18.74;71.02;100380.84;5140891;27;20047;-64
2023/07/27 10:27:55;;;;;;;0.57;0.57;;;;;;;18.77;70.13;100379.47;5128544;28;20047;-64
2023/07/27 10:30:23;;;;;;;1.08;0.82;;;;;;;18.78;70.94;100381.09;5144036;27;20043;-63
2023/07/27 10:33:15;;;;;;;2.45;0.77;;;;;;;18.75;70.88;100378.94;5140295;27;20051;-64
2023/07/27 10:36:01;;;;;;;1.60;0.80;;;;;;;18.76;71.19;100381.38;5143363;27;20125;-64
2023/07/27 10:38:32;;;;;;;0.60;0.60;;;;;;;18.77;71.51;100380.28;5141234;27;20091;-64
2023/07/27 10:41:13;;;;;;;0.63;0.63;;;;;;;18.77;71.09;100382.19;5147702;27;20058;-63
2023/07/27 10:44:15;;;;;;;0.65;0.50;;;;;;;18.79;70.88;100380.81;5147039;27;20496;-65
2023/07/27 10:46:47;;;;;;;3.03;1.08;;;;;;;18.76;71.48;100377.84;5138712;27;20043;-64
2023/07/27 10:49:17;;;;;;;1.90;0.82;;;;;;;18.78;71.92;100368.28;5142973;27;20112;-65
2023/07/27 10:51:56;;;;;;;0.47;0.47;;;;;;;18.78;72.17;100381.09;5142697;27;20066;-65
2023/07/27 10:54:25;;;;;;;0.63;0.60;;;;;;;18.77;72.45;100374.84;5137094;27;20540;-64
2023/07/27 10:56:54;;;;;;;1.20;0.70;;;;;;;18.77;72.34;100368.56;5145042;27;20082;-66
2023/07/27 10:59:23;;;;;;;1.13;0.80;;;;;;;18.77;72.68;100377.56;5144818;27;20102;-65
2023/07/27 11:01:51;;;;;;;1.20;0.63;;;;;;;18.77;72.43;100374.03;5144810;27;20100;-65
2023/07/27 11:04:21;;;;;;;0.50;0.50;;;;;;;18.78;72.44;100373.72;5147362;27;20488;-65
2023/07/27 11:06:49;;;;;;;1.08;0.60;;;;;;;18.79;72.23;100374.53;5146153;27;20171;-65
2023/07/27 11:09:18;;;;;;;3.22;0.60;;;;;;;18.82;71.99;100373.97;5144588;27;20500;-66
2023/07/27 11:11:50;;;;;;;2.15;0.70;;;;;;;18.80;71.02;100371.53;5135560;27;20055;-67
2023/07/27 11:14:18;;;;;;;0.38;0.38;;;;;;;18.87;70.89;100375.81;5146193;27;20092;-66
2023/07/27 11:16:45;;;;;;;0.57;0.45;;;;;;;18.88;71.52;100380.97;5141361;27;20072;-65
2023/07/27 11:19:13;;;;;;;1.05;0.50;;;;;;;18.87;72.10;100376.63;5139648;27;20054;-62
2023/07/27 11:21:43;;;;;;;4.47;0.57;;;;;;;18.86;72.36;100372.28;5141762;27;20054;-63
2023/07/27 11:24:11;;;;;;;0.90;0.38;;;;;;;18.91;71.47;100371.44;5140917;27;20047;-65
2023/07/27 11:26:40;;;;;;;1.05;0.50;;;;;;;18.90;71.65;100370.63;5140303;27;20043;-65
2023/07/27 11:29:08;;;;;;;0.65;0.65;;;;;;;18.90;72.01;100365.16;5141996;27;20051;-65
2023/07/27 11:31:36;;;;;;;1.20;0.90;;;;;;;18.90;71.50;100359.72;5141555;27;20043;-65
2023/07/27 11:34:04;;;;;;;4.47;0.60;;;;;;;18.90;71.41;100361.63;5139178;27;20476;-64